createdAt,value
2023-03-20T00:01:13.582Z,9.10
2023-03-20T00:03:40.555Z,9.10
2023-03-20T00:06:27.012Z,9.20
2023-03-20T00:08:54.460Z,9.10
2023-03-20T00:11:32.988Z,9.10
2023-03-20T00:14:01.130Z,9.10
2023-03-20T00:16:30.992Z,9.20
2023-03-20T00:18:57.816Z,9.20
2023-03-20T00:21:24.557Z,9.20
2023-03-20T00:23:51.271Z,9.20
2023-03-20T00:26:19.606Z,9.20
2023-03-20T00:28:47.968Z,9.20
2023-03-20T00:31:24.710Z,9.40
2023-03-20T00:33:57.155Z,9.40
2023-03-20T00:36:24.340Z,9.40
2023-03-20T00:38:51.640Z,9.40
2023-03-20T00:41:18.257Z,9.40
2023-03-20T00:43:45.774Z,9.30
2023-03-20T00:46:13.750Z,9.30
2023-03-20T00:48:42.247Z,9.30
2023-03-20T00:51:09.198Z,9.40
2023-03-20T00:53:36.164Z,9.30
2023-03-20T00:56:03.102Z,9.40
2023-03-20T00:58:29.789Z,9.40
2023-03-20T01:00:56.688Z,9.40
2023-03-20T01:03:25.874Z,9.40
2023-03-20T01:05:52.559Z,9.40
2023-03-20T01:08:23.939Z,9.40
2023-03-20T01:10:52.972Z,9.30
2023-03-20T01:13:26.601Z,9.40
2023-03-20T01:15:54.142Z,9.40
2023-03-20T01:18:22.034Z,9.40
2023-03-20T01:20:49.020Z,9.20
2023-03-20T01:23:16.096Z,9.20
2023-03-20T01:25:43.016Z,9.20
2023-03-20T01:28:23.485Z,9.20
2023-03-20T01:30:50.589Z,9.20
2023-03-20T01:33:18.490Z,9.30
2023-03-20T01:35:48.510Z,9.20
2023-03-20T01:38:18.865Z,9.20
2023-03-20T01:40:48.999Z,9.10
2023-03-20T01:43:18.421Z,9.10
2023-03-20T01:45:58.124Z,9.30
2023-03-20T01:48:27.190Z,9.20
2023-03-20T01:50:53.962Z,9.20
2023-03-20T01:53:22.517Z,9.20
2023-03-20T01:55:57.250Z,9.20
2023-03-20T01:58:37.232Z,9.20
2023-03-20T02:01:09.065Z,9.20
2023-03-20T02:03:36.559Z,9.10
2023-03-20T02:06:18.801Z,9.30
2023-03-20T02:09:17.533Z,9.20
2023-03-20T02:11:46.807Z,9.20
2023-03-20T02:14:15.741Z,9.10
2023-03-20T02:17:03.593Z,9.10
2023-03-20T02:19:50.324Z,9.10
2023-03-20T02:22:24.076Z,9.10
2023-03-20T02:25:15.588Z,9.10
2023-03-20T02:28:13.654Z,9.20
2023-03-20T02:30:40.699Z,9.10
2023-03-20T02:33:25.817Z,9.10
2023-03-20T02:36:00.333Z,9.10
2023-03-20T02:38:33.256Z,9.20
2023-03-20T02:41:06.103Z,9.20
2023-03-20T02:43:32.740Z,9.30
2023-03-20T02:46:11.829Z,9.40
2023-03-20T02:48:43.586Z,9.30
2023-03-20T02:51:15.265Z,9.40
2023-03-20T02:54:05.675Z,9.40
2023-03-20T02:56:52.278Z,9.40
2023-03-20T02:59:45.629Z,9.40
2023-03-20T03:02:16.858Z,9.40
2023-03-20T03:04:55.136Z,9.40
2023-03-20T03:07:24.166Z,9.40
2023-03-20T03:09:59.845Z,9.30
2023-03-20T03:12:35.815Z,9.40
2023-03-20T03:15:07.527Z,9.40
2023-03-20T03:17:38.125Z,9.40
2023-03-20T03:20:08.281Z,9.30
2023-03-20T03:22:36.427Z,9.30
2023-03-20T03:25:03.262Z,9.40
2023-03-20T03:27:43.892Z,9.30
2023-03-20T03:30:16.085Z,9.30
2023-03-20T03:33:01.600Z,9.30
2023-03-20T03:35:28.316Z,9.20
2023-03-20T03:38:00.781Z,9.20
2023-03-20T03:40:39.647Z,9.10
2023-03-20T03:43:16.433Z,9.10
2023-03-20T03:45:48.061Z,9.10
2023-03-20T03:48:27.476Z,9.00
2023-03-20T03:50:56.187Z,9.10
2023-03-20T03:53:25.391Z,9.10
2023-03-20T03:55:54.423Z,9.10
2023-03-20T03:58:25.273Z,9.20
2023-03-20T04:00:54.720Z,9.20
2023-03-20T04:03:24.101Z,9.10
2023-03-20T04:05:51.941Z,9.20
2023-03-20T04:08:20.129Z,9.20
2023-03-20T04:10:46.808Z,9.20
2023-03-20T04:13:13.458Z,9.10
2023-03-20T04:15:41.454Z,9.10
2023-03-20T04:18:11.022Z,9.20
2023-03-20T04:20:39.294Z,9.30
2023-03-20T04:23:06.161Z,9.20
2023-03-20T04:28:06.956Z,9.10
2023-03-20T04:30:40.403Z,9.10
2023-03-20T04:33:23.301Z,9.10
2023-03-20T04:36:09.512Z,9.10
2023-03-20T04:38:46.206Z,9.20
2023-03-20T04:41:13.329Z,9.20
2023-03-20T04:43:40.518Z,9.10
2023-03-20T04:46:08.035Z,9.20
2023-03-20T04:48:34.827Z,9.20
2023-03-20T04:51:01.684Z,9.10
2023-03-20T04:53:41.077Z,9.20
2023-03-20T04:56:09.637Z,9.20
2023-03-20T04:58:36.592Z,9.20
2023-03-20T05:01:04.039Z,9.20
2023-03-20T05:03:30.796Z,9.20
2023-03-20T05:05:57.663Z,9.20
2023-03-20T05:08:25.893Z,9.30
2023-03-20T05:10:56.707Z,9.20
2023-03-20T05:13:51.927Z,9.20
2023-03-20T05:16:54.062Z,9.20
2023-03-20T05:19:30.237Z,9.20
2023-03-20T05:22:20.232Z,9.30
2023-03-20T05:24:57.865Z,9.30
2023-03-20T05:27:46.968Z,9.30
2023-03-20T05:30:36.590Z,9.40
2023-03-20T05:33:22.149Z,9.40
2023-03-20T05:36:01.844Z,9.40
2023-03-20T05:38:38.760Z,9.40
2023-03-20T05:41:34.777Z,9.50
2023-03-20T05:44:30.844Z,9.50
2023-03-20T05:47:17.944Z,9.40
2023-03-20T05:49:50.958Z,9.40
2023-03-20T05:52:36.262Z,9.50
2023-03-20T05:55:19.489Z,9.50
2023-03-20T05:58:02.042Z,9.50
2023-03-20T06:00:47.433Z,9.50
2023-03-20T06:03:40.721Z,9.50
2023-03-20T06:06:12.847Z,9.50
2023-03-20T06:08:41.108Z,9.50
2023-03-20T06:11:08.442Z,9.50
2023-03-20T06:13:38.336Z,9.60
2023-03-20T06:16:06.135Z,9.50
2023-03-20T06:18:32.979Z,9.60
2023-03-20T06:20:59.864Z,9.70
2023-03-20T06:23:29.643Z,9.60
2023-03-20T06:25:57.098Z,9.60
2023-03-20T06:28:25.371Z,9.60
2023-03-20T06:31:00.500Z,9.70
2023-03-20T06:33:27.526Z,9.70
2023-03-20T06:35:58.269Z,9.70
2023-03-20T06:38:27.105Z,9.70
2023-03-20T06:40:54.486Z,9.70
2023-03-20T06:43:22.627Z,9.70
2023-03-20T06:45:52.711Z,9.70
2023-03-20T06:48:26.097Z,9.80
2023-03-20T06:50:53.285Z,9.70
2023-03-20T06:53:22.546Z,9.70
2023-03-20T06:55:59.589Z,9.70
2023-03-20T06:58:27.018Z,9.70
2023-03-20T07:00:54.989Z,9.60
2023-03-20T07:03:22.629Z,9.60
2023-03-20T07:05:50.966Z,9.50
2023-03-20T07:08:18.882Z,9.50
2023-03-20T07:10:45.985Z,9.60
2023-03-20T07:13:14.284Z,9.80
2023-03-20T07:15:57.466Z,9.90
2023-03-20T07:18:31.292Z,10.00
2023-03-20T07:21:02.362Z,10.20
2023-03-20T07:23:34.381Z,10.40
2023-03-20T07:26:03.463Z,10.50
2023-03-20T07:28:30.780Z,10.60
2023-03-20T07:31:23.134Z,10.60
2023-03-20T07:33:56.402Z,10.50
2023-03-20T07:36:23.495Z,10.50
2023-03-20T07:38:50.483Z,10.40
2023-03-20T07:41:18.525Z,10.40
2023-03-20T07:43:55.769Z,10.50
2023-03-20T07:46:28.471Z,10.50
2023-03-20T07:48:58.084Z,10.50
2023-03-20T07:51:25.573Z,10.60
2023-03-20T07:53:52.337Z,10.60
2023-03-20T07:56:21.194Z,10.50
2023-03-20T07:58:48.014Z,10.50
2023-03-20T08:01:15.257Z,10.40
2023-03-20T08:03:42.077Z,10.40
2023-03-20T08:06:09.627Z,10.30
2023-03-20T08:08:36.616Z,10.20
2023-03-20T08:11:03.424Z,10.10
2023-03-20T08:13:30.744Z,10.10
2023-03-20T08:15:58.001Z,10.20
2023-03-20T08:18:24.856Z,10.20
2023-03-20T08:20:51.541Z,10.30
2023-03-20T08:23:20.677Z,10.40
2023-03-20T08:25:52.068Z,10.50
2023-03-20T08:28:18.866Z,10.50
2023-03-20T08:30:45.961Z,10.40
2023-03-20T08:33:15.227Z,10.40
2023-03-20T08:35:43.447Z,10.50
2023-03-20T08:38:13.570Z,10.50
2023-03-20T08:40:43.569Z,10.40
2023-03-20T08:43:10.297Z,10.50
2023-03-20T08:45:37.438Z,10.50
2023-03-20T08:48:04.803Z,10.60
2023-03-20T08:50:31.634Z,10.60
2023-03-20T08:52:58.342Z,10.60
2023-03-20T08:55:27.224Z,10.50
2023-03-20T08:57:54.641Z,10.60
2023-03-20T09:00:22.396Z,10.60
2023-03-20T09:02:49.344Z,10.70
2023-03-20T09:05:16.696Z,10.70
2023-03-20T09:07:43.918Z,10.70
2023-03-20T09:10:11.805Z,10.60
2023-03-20T09:12:39.009Z,10.60
2023-03-20T09:15:07.324Z,10.70
2023-03-20T09:17:34.115Z,10.70
2023-03-20T09:20:00.938Z,10.80
2023-03-20T09:22:27.719Z,10.80
2023-03-20T09:24:54.428Z,10.70
2023-03-20T09:27:21.568Z,10.70
2023-03-20T09:29:48.371Z,10.80
2023-03-20T09:32:15.977Z,10.80
2023-03-20T09:34:43.144Z,10.80
2023-03-20T09:37:10.421Z,10.90
2023-03-20T09:39:37.874Z,10.90
2023-03-20T09:42:39.864Z,10.90
2023-03-20T09:45:25.365Z,11.10
2023-03-20T09:48:03.155Z,11.40
2023-03-20T09:50:36.189Z,11.90
2023-03-20T09:53:16.597Z,12.90
2023-03-20T09:55:44.338Z,14.00
2023-03-20T09:58:16.945Z,15.30
2023-03-20T10:00:46.615Z,16.20
2023-03-20T10:03:22.323Z,17.60
2023-03-20T10:05:56.927Z,18.50
2023-03-20T10:08:34.097Z,18.80
2023-03-20T10:11:16.257Z,18.50
2023-03-20T10:14:01.944Z,18.30
2023-03-20T10:16:55.702Z,17.70
2023-03-20T10:19:30.108Z,17.80
2023-03-20T10:22:25.897Z,17.70
2023-03-20T10:25:15.775Z,17.70
2023-03-20T10:27:50.930Z,17.70
2023-03-20T10:30:51.764Z,17.10
2023-03-20T10:33:49.752Z,16.50
2023-03-20T10:36:36.140Z,16.20
2023-03-20T10:39:10.261Z,15.90
2023-03-20T10:41:41.956Z,15.50
2023-03-20T10:44:22.340Z,15.10
2023-03-20T10:46:53.735Z,14.60
2023-03-20T10:49:40.151Z,14.50
2023-03-20T10:52:30.510Z,14.40
2023-03-20T10:55:03.546Z,14.90
2023-03-20T10:57:37.705Z,15.50
2023-03-20T11:00:11.409Z,15.90
2023-03-20T11:02:38.518Z,16.20
2023-03-20T11:05:26.454Z,16.70
2023-03-20T11:08:12.434Z,16.80
2023-03-20T11:10:42.127Z,17.00
2023-03-20T11:13:25.376Z,16.40
2023-03-20T11:15:54.358Z,15.90
2023-03-20T11:18:25.179Z,15.80
2023-03-20T11:20:54.084Z,15.80
2023-03-20T11:23:26.467Z,15.80
2023-03-20T11:26:16.307Z,15.50
2023-03-20T11:28:48.404Z,15.70
2023-03-20T11:31:24.799Z,15.50
2023-03-20T11:34:07.254Z,15.50
2023-03-20T11:36:36.761Z,15.50
2023-03-20T11:39:16.130Z,15.40
2023-03-20T11:41:50.358Z,15.60
2023-03-20T11:44:22.841Z,16.60
2023-03-20T11:47:03.045Z,18.00
2023-03-20T11:49:31.769Z,19.00
2023-03-20T11:52:11.563Z,19.60
2023-03-20T11:54:46.390Z,19.40
2023-03-20T11:57:41.009Z,19.50
2023-03-20T12:00:23.391Z,20.30
2023-03-20T12:02:51.016Z,21.00
2023-03-20T12:05:19.443Z,20.90
2023-03-20T12:07:49.353Z,20.40
2023-03-20T12:10:19.328Z,20.20
2023-03-20T12:12:51.811Z,20.40
2023-03-20T12:15:23.053Z,20.70
2023-03-20T12:18:03.306Z,20.90
2023-03-20T12:20:32.953Z,20.80
2023-03-20T12:23:35.476Z,20.50
2023-03-20T12:26:31.929Z,20.40
2023-03-20T12:29:13.063Z,20.70
2023-03-20T12:31:59.016Z,19.90
2023-03-20T12:34:32.966Z,19.00
2023-03-20T12:37:00.289Z,18.70
2023-03-20T12:39:38.569Z,18.40
2023-03-20T12:42:23.714Z,18.20
2023-03-20T12:45:01.135Z,17.70
2023-03-20T12:47:53.565Z,17.10
2023-03-20T12:50:41.834Z,16.90
2023-03-20T12:53:38.082Z,16.50
2023-03-20T12:56:37.771Z,16.40
2023-03-20T12:59:43.662Z,16.40
2023-03-20T13:02:33.555Z,16.30
2023-03-20T13:05:07.715Z,16.20
2023-03-20T13:07:41.410Z,16.20
2023-03-20T13:10:21.485Z,16.10
2023-03-20T13:12:53.706Z,16.10
2023-03-20T13:15:59.915Z,16.00
2023-03-20T13:18:41.596Z,15.70
2023-03-20T13:21:16.314Z,15.70
2023-03-20T13:24:35.733Z,15.60
2023-03-20T13:27:35.975Z,15.60
2023-03-20T13:30:27.071Z,15.70
2023-03-20T13:33:07.716Z,15.50
2023-03-20T13:35:59.193Z,15.40
2023-03-20T13:38:35.321Z,15.30
2023-03-20T13:41:06.086Z,15.20
2023-03-20T13:43:43.345Z,15.10
2023-03-20T13:46:23.961Z,15.10
2023-03-20T13:48:53.648Z,15.10
2023-03-20T13:51:38.214Z,15.10
2023-03-20T13:54:20.514Z,15.10
2023-03-20T13:57:33.704Z,15.00
2023-03-20T14:00:21.815Z,15.30
2023-03-20T14:03:01.015Z,15.40
2023-03-20T14:05:30.750Z,15.60
2023-03-20T14:07:58.527Z,15.80
2023-03-20T14:10:25.764Z,15.70
2023-03-20T14:13:00.217Z,15.80
2023-03-20T14:15:32.906Z,15.90
2023-03-20T14:18:06.700Z,15.90
2023-03-20T14:20:37.404Z,15.50
2023-03-20T14:23:05.617Z,15.40
2023-03-20T14:25:41.669Z,15.70
2023-03-20T14:28:11.997Z,15.70
2023-03-20T14:30:39.361Z,15.80
2023-03-20T14:33:19.585Z,16.00
2023-03-20T14:36:11.437Z,16.30
2023-03-20T14:38:57.769Z,16.10
2023-03-20T14:41:36.338Z,16.10
2023-03-20T14:44:29.504Z,15.90
2023-03-20T14:47:02.013Z,15.90
2023-03-20T14:50:07.597Z,15.70
2023-03-20T14:52:51.895Z,15.40
2023-03-20T14:55:22.946Z,15.00
2023-03-20T14:57:57.032Z,15.10
2023-03-20T15:00:33.955Z,15.00
2023-03-20T15:03:11.901Z,14.80
2023-03-20T15:05:40.283Z,14.80
2023-03-20T15:08:11.578Z,14.90
2023-03-20T15:10:47.910Z,14.80
2023-03-20T15:13:16.775Z,14.70
2023-03-20T15:16:11.480Z,14.70
2023-03-20T15:18:44.466Z,14.70
2023-03-20T15:21:17.368Z,14.70
2023-03-20T15:23:48.295Z,14.80
2023-03-20T15:26:17.915Z,14.60
2023-03-20T15:28:47.013Z,14.50
2023-03-20T15:31:23.994Z,14.50
2023-03-20T15:33:51.446Z,14.40
2023-03-20T15:36:21.376Z,14.30
2023-03-20T15:38:49.353Z,14.00
2023-03-20T15:41:34.352Z,13.80
2023-03-20T15:44:22.921Z,13.80
2023-03-20T15:46:57.542Z,13.70
2023-03-20T15:49:26.004Z,13.70
2023-03-20T15:51:55.931Z,13.60
2023-03-20T15:54:22.832Z,13.50
2023-03-20T15:56:50.948Z,13.50
2023-03-20T15:59:19.912Z,13.40
2023-03-20T16:01:50.138Z,13.40
2023-03-20T16:04:18.509Z,13.40
2023-03-20T16:06:53.473Z,13.40
2023-03-20T16:09:20.355Z,13.50
2023-03-20T16:11:48.458Z,13.50
2023-03-20T16:14:21.012Z,13.40
2023-03-20T16:16:50.973Z,13.40
2023-03-20T16:19:18.672Z,13.40
2023-03-20T16:21:53.058Z,13.30
2023-03-20T16:24:30.470Z,13.20
2023-03-20T16:26:57.933Z,13.10
2023-03-20T16:29:27.002Z,13.10
2023-03-20T16:32:04.358Z,13.00
2023-03-20T16:34:32.750Z,13.00
2023-03-20T16:37:02.078Z,13.00
2023-03-20T16:39:31.237Z,12.90
2023-03-20T16:42:24.067Z,12.80
2023-03-20T16:44:56.593Z,12.80
2023-03-20T16:47:32.916Z,12.80
2023-03-20T16:50:17.362Z,12.80
2023-03-20T16:52:58.421Z,12.70
2023-03-20T16:55:29.419Z,12.60
2023-03-20T16:58:00.546Z,12.50
2023-03-20T17:00:41.611Z,12.50
2023-03-20T17:03:18.794Z,12.40
2023-03-20T17:05:54.173Z,12.40
2023-03-20T17:08:36.471Z,12.30
2023-03-20T17:11:15.561Z,12.30
2023-03-20T17:13:43.127Z,12.20
2023-03-20T17:16:16.091Z,12.10
2023-03-20T17:18:57.792Z,12.00
2023-03-20T17:21:24.761Z,12.00
2023-03-20T17:23:51.467Z,11.90
2023-03-20T17:26:18.424Z,11.90
2023-03-20T17:28:45.246Z,11.90
2023-03-20T17:31:16.982Z,11.90
2023-03-20T17:33:44.643Z,11.80
2023-03-20T17:36:27.082Z,11.90
2023-03-20T17:38:58.260Z,11.90
2023-03-20T17:41:27.204Z,11.80
2023-03-20T17:43:56.224Z,11.80
2023-03-20T17:46:32.379Z,11.80
2023-03-20T17:49:07.843Z,11.70
2023-03-20T17:51:35.331Z,11.70
2023-03-20T17:54:02.073Z,11.60
2023-03-20T17:56:30.291Z,11.60
2023-03-20T17:58:57.678Z,11.50
2023-03-20T18:01:24.885Z,11.50
2023-03-20T18:03:51.863Z,11.50
2023-03-20T18:06:21.602Z,11.40
2023-03-20T18:08:48.326Z,11.40
2023-03-20T18:11:15.674Z,11.40
2023-03-20T18:13:42.898Z,11.30
2023-03-20T18:16:24.873Z,11.40
2023-03-20T18:18:52.974Z,11.40
2023-03-20T18:21:20.471Z,11.40
2023-03-20T18:23:47.472Z,11.40
2023-03-20T18:26:22.305Z,11.40
2023-03-20T18:28:51.732Z,11.40
2023-03-20T18:31:19.087Z,11.40
2023-03-20T18:33:50.899Z,11.30
2023-03-20T18:36:23.071Z,11.30
2023-03-20T18:38:50.737Z,11.20
2023-03-20T18:41:17.700Z,11.20
2023-03-20T18:43:46.500Z,11.20
2023-03-20T18:46:15.020Z,11.20
2023-03-20T18:48:42.410Z,11.10
2023-03-20T18:51:09.287Z,11.20
2023-03-20T18:53:36.308Z,11.30
2023-03-20T18:56:03.950Z,11.20
2023-03-20T18:58:31.445Z,11.10
2023-03-20T19:00:59.704Z,11.10
2023-03-20T19:03:28.457Z,11.00
2023-03-20T19:05:58.243Z,11.00
2023-03-20T19:08:25.197Z,11.00
2023-03-20T19:10:52.170Z,11.00
2023-03-20T19:13:21.654Z,10.90
2023-03-20T19:15:48.732Z,10.90
2023-03-20T19:18:18.507Z,10.90
2023-03-20T19:20:50.822Z,10.80
2023-03-20T19:23:20.288Z,10.80
2023-03-20T19:25:50.777Z,10.90
2023-03-20T19:28:37.871Z,10.90
2023-03-20T19:31:05.822Z,10.80
2023-03-20T19:33:33.408Z,10.80
2023-03-20T19:36:03.553Z,10.90
2023-03-20T19:38:31.190Z,10.80
2023-03-20T19:40:59.264Z,10.80
2023-03-20T19:43:26.103Z,10.70
2023-03-20T19:45:57.931Z,10.70
2023-03-20T19:51:22.648Z,10.70
2023-03-20T19:53:50.486Z,10.60
2023-03-20T19:56:19.210Z,10.70
2023-03-20T19:58:46.478Z,10.60
2023-03-20T20:01:22.686Z,10.70
2023-03-20T20:03:50.567Z,10.70
2023-03-20T20:06:20.091Z,10.70
2023-03-20T20:08:49.559Z,10.70
2023-03-20T20:11:20.451Z,10.80
2023-03-20T20:14:05.190Z,10.80
2023-03-20T20:16:39.925Z,10.80
2023-03-20T20:19:07.376Z,10.80
2023-03-20T20:24:21.504Z,10.70
2023-03-20T20:26:54.801Z,10.60
2023-03-20T20:29:27.051Z,10.70
2023-03-20T20:31:53.900Z,10.60
2023-03-20T20:39:58.314Z,10.60
2023-03-20T20:42:25.419Z,10.60
2023-03-20T20:44:52.349Z,10.60
2023-03-20T20:47:19.201Z,10.50
2023-03-20T20:49:47.366Z,10.40
2023-03-20T20:52:15.618Z,10.40
2023-03-20T20:54:42.401Z,10.40
2023-03-20T20:57:12.690Z,10.40
2023-03-20T20:59:40.965Z,10.30
2023-03-20T21:02:13.018Z,10.20
2023-03-20T21:04:41.770Z,10.20
2023-03-20T21:07:13.067Z,10.10
2023-03-20T21:09:40.918Z,10.10
2023-03-20T21:12:10.418Z,10.00
2023-03-20T21:14:38.009Z,10.00
2023-03-20T21:17:06.182Z,9.90
2023-03-20T21:19:41.709Z,9.90
2023-03-20T21:22:11.206Z,9.90
2023-03-20T21:24:39.829Z,9.90
2023-03-20T21:27:11.025Z,9.80
2023-03-20T21:29:38.945Z,9.80
2023-03-20T21:32:06.288Z,9.80
2023-03-20T21:34:33.385Z,9.80
2023-03-20T21:37:20.614Z,9.80
2023-03-20T21:39:51.401Z,9.80
2023-03-20T21:42:18.944Z,9.90
2023-03-20T21:45:34.551Z,9.80
2023-03-20T21:48:24.557Z,9.80
2023-03-20T21:53:52.327Z,9.90
2023-03-20T21:56:37.736Z,9.90
2023-03-20T21:59:27.045Z,9.90
2023-03-20T22:01:58.704Z,9.80
2023-03-20T22:05:16.292Z,9.90
2023-03-20T22:07:37.516Z,9.90
2023-03-20T22:10:35.213Z,9.90
2023-03-20T22:13:20.787Z,9.90
2023-03-20T22:16:03.436Z,9.90
2023-03-20T22:19:14.693Z,9.90
2023-03-20T22:21:42.935Z,9.90
2023-03-20T22:24:38.098Z,9.80
2023-03-20T22:30:00.630Z,9.80
2023-03-20T22:35:43.941Z,9.80
2023-03-20T22:41:22.471Z,9.70
2023-03-20T22:46:16.769Z,9.70
2023-03-20T22:48:44.371Z,9.70
2023-03-20T22:51:12.710Z,9.70
2023-03-20T22:53:40.574Z,9.70
2023-03-20T22:56:07.474Z,9.80
2023-03-20T22:58:35.185Z,9.70
2023-03-20T23:01:02.107Z,9.70
2023-03-20T23:03:40.939Z,9.60
2023-03-20T23:06:10.440Z,9.70
2023-03-20T23:08:48.738Z,9.70
2023-03-20T23:11:19.984Z,9.70
2023-03-20T23:13:46.928Z,9.70
2023-03-20T23:16:13.680Z,9.70
2023-03-20T23:18:41.124Z,9.70
2023-03-20T23:21:09.021Z,9.80
2023-03-20T23:23:35.868Z,9.80
2023-03-20T23:26:05.851Z,9.80
2023-03-20T23:28:33.396Z,9.80
2023-03-20T23:31:10.715Z,9.80
2023-03-20T23:33:44.430Z,9.80
2023-03-20T23:36:24.765Z,9.70
2023-03-20T23:38:55.631Z,9.60
2023-03-20T23:41:43.368Z,9.70
2023-03-20T23:44:09.594Z,9.70
2023-03-20T23:46:36.353Z,9.70
2023-03-20T23:49:05.644Z,9.70
2023-03-20T23:51:32.511Z,9.60
2023-03-20T23:53:59.222Z,9.60
2023-03-20T23:56:25.998Z,9.70
2023-03-20T23:59:01.104Z,9.70
